sensor_id;sensor_type;location;lat;lon;timestamp;P1;durP1;ratioP1;P2;durP2;ratioP2
48199;SDS011;33990;44.602;10.976;2023-04-01T00:01:57;6.43;;;3.90;;
48199;SDS011;33990;44.602;10.976;2023-04-01T00:04:24;6.15;;;3.65;;
48199;SDS011;33990;44.602;10.976;2023-04-01T00:06:52;6.35;;;3.58;;
48199;SDS011;33990;44.602;10.976;2023-04-01T00:09:19;8.30;;;4.28;;
48199;SDS011;33990;44.602;10.976;2023-04-01T00:11:46;4.43;;;3.83;;
48199;SDS011;33990;44.602;10.976;2023-04-01T00:14:14;5.15;;;3.67;;
48199;SDS011;33990;44.602;10.976;2023-04-01T00:16:43;4.90;;;3.53;;
48199;SDS011;33990;44.602;10.976;2023-04-01T00:19:10;6.88;;;4.55;;
48199;SDS011;33990;44.602;10.976;2023-04-01T00:21:38;6.05;;;3.70;;
48199;SDS011;33990;44.602;10.976;2023-04-01T00:24:05;6.82;;;3.60;;
48199;SDS011;33990;44.602;10.976;2023-04-01T00:26:32;7.35;;;3.85;;
48199;SDS011;33990;44.602;10.976;2023-04-01T00:29:00;8.13;;;3.70;;
48199;SDS011;33990;44.602;10.976;2023-04-01T00:31:27;6.53;;;4.00;;
48199;SDS011;33990;44.602;10.976;2023-04-01T00:33:55;6.03;;;4.05;;
48199;SDS011;33990;44.602;10.976;2023-04-01T00:36:23;5.93;;;3.80;;
48199;SDS011;33990;44.602;10.976;2023-04-01T00:38:50;5.95;;;3.58;;
48199;SDS011;33990;44.602;10.976;2023-04-01T00:41:19;5.80;;;4.05;;
48199;SDS011;33990;44.602;10.976;2023-04-01T00:43:49;5.32;;;3.42;;
48199;SDS011;33990;44.602;10.976;2023-04-01T00:46:18;7.13;;;4.68;;
48199;SDS011;33990;44.602;10.976;2023-04-01T00:48:51;7.53;;;4.07;;
48199;SDS011;33990;44.602;10.976;2023-04-01T00:51:23;4.63;;;3.70;;
48199;SDS011;33990;44.602;10.976;2023-04-01T00:53:55;6.57;;;4.53;;
48199;SDS011;33990;44.602;10.976;2023-04-01T00:56:26;7.88;;;3.90;;
48199;SDS011;33990;44.602;10.976;2023-04-01T00:58:59;6.38;;;3.42;;
48199;SDS011;33990;44.602;10.976;2023-04-01T01:01:29;7.07;;;4.45;;
48199;SDS011;33990;44.602;10.976;2023-04-01T01:03:58;5.22;;;4.22;;
48199;SDS011;33990;44.602;10.976;2023-04-01T01:06:42;6.05;;;3.60;;
48199;SDS011;33990;44.602;10.976;2023-04-01T01:12:05;6.60;;;4.00;;
48199;SDS011;33990;44.602;10.976;2023-04-01T01:14:45;8.88;;;3.83;;
48199;SDS011;33990;44.602;10.976;2023-04-01T01:20:44;5.93;;;3.67;;
48199;SDS011;33990;44.602;10.976;2023-04-01T01:31:29;8.18;;;4.25;;
48199;SDS011;33990;44.602;10.976;2023-04-01T01:34:51;7.22;;;3.75;;
48199;SDS011;33990;44.602;10.976;2023-04-01T01:37:05;6.32;;;4.05;;
48199;SDS011;33990;44.602;10.976;2023-04-01T01:39:37;6.60;;;4.40;;
48199;SDS011;33990;44.602;10.976;2023-04-01T01:42:08;5.78;;;3.60;;
48199;SDS011;33990;44.602;10.976;2023-04-01T01:44:40;7.13;;;4.60;;
48199;SDS011;33990;44.602;10.976;2023-04-01T01:47:11;6.88;;;4.35;;
48199;SDS011;33990;44.602;10.976;2023-04-01T01:49:41;8.88;;;3.85;;
48199;SDS011;33990;44.602;10.976;2023-04-01T01:52:10;6.35;;;4.22;;
48199;SDS011;33990;44.602;10.976;2023-04-01T01:54:49;8.57;;;4.13;;
48199;SDS011;33990;44.602;10.976;2023-04-01T01:57:24;5.50;;;3.63;;
48199;SDS011;33990;44.602;10.976;2023-04-01T01:59:59;10.48;;;4.22;;
48199;SDS011;33990;44.602;10.976;2023-04-01T02:02:45;5.55;;;3.55;;
48199;SDS011;33990;44.602;10.976;2023-04-01T02:05:16;6.95;;;4.47;;
48199;SDS011;33990;44.602;10.976;2023-04-01T02:07:48;6.43;;;3.72;;
48199;SDS011;33990;44.602;10.976;2023-04-01T02:10:22;4.18;;;3.65;;
48199;SDS011;33990;44.602;10.976;2023-04-01T02:12:53;5.80;;;3.60;;
48199;SDS011;33990;44.602;10.976;2023-04-01T02:15:27;6.80;;;4.07;;
48199;SDS011;33990;44.602;10.976;2023-04-01T02:18:00;5.57;;;4.05;;
48199;SDS011;33990;44.602;10.976;2023-04-01T02:20:29;5.38;;;3.65;;
48199;SDS011;33990;44.602;10.976;2023-04-01T02:22:57;8.07;;;3.90;;
48199;SDS011;33990;44.602;10.976;2023-04-01T02:25:27;5.05;;;3.65;;
48199;SDS011;33990;44.602;10.976;2023-04-01T02:27:58;6.53;;;4.38;;
48199;SDS011;33990;44.602;10.976;2023-04-01T02:30:27;7.03;;;4.20;;
48199;SDS011;33990;44.602;10.976;2023-04-01T02:32:56;4.72;;;4.15;;
48199;SDS011;33990;44.602;10.976;2023-04-01T02:35:25;6.38;;;4.05;;
48199;SDS011;33990;44.602;10.976;2023-04-01T02:37:53;6.13;;;3.58;;
48199;SDS011;33990;44.602;10.976;2023-04-01T02:40:22;6.85;;;3.55;;
48199;SDS011;33990;44.602;10.976;2023-04-01T02:42:49;4.75;;;3.67;;
48199;SDS011;33990;44.602;10.976;2023-04-01T02:45:17;5.90;;;3.67;;
48199;SDS011;33990;44.602;10.976;2023-04-01T02:47:45;6.75;;;4.00;;
48199;SDS011;33990;44.602;10.976;2023-04-01T02:50:12;6.13;;;3.42;;
48199;SDS011;33990;44.602;10.976;2023-04-01T02:52:40;6.07;;;3.78;;
48199;SDS011;33990;44.602;10.976;2023-04-01T02:55:07;6.28;;;3.83;;
48199;SDS011;33990;44.602;10.976;2023-04-01T02:57:35;5.20;;;4.05;;
48199;SDS011;33990;44.602;10.976;2023-04-01T03:00:03;6.70;;;3.65;;
48199;SDS011;33990;44.602;10.976;2023-04-01T03:02:30;8.02;;;3.75;;
48199;SDS011;33990;44.602;10.976;2023-04-01T03:04:58;5.18;;;3.72;;
48199;SDS011;33990;44.602;10.976;2023-04-01T03:07:25;8.50;;;3.88;;
48199;SDS011;33990;44.602;10.976;2023-04-01T03:09:52;6.07;;;3.83;;
48199;SDS011;33990;44.602;10.976;2023-04-01T03:12:20;4.57;;;3.25;;
48199;SDS011;33990;44.602;10.976;2023-04-01T03:14:50;5.00;;;3.45;;
48199;SDS011;33990;44.602;10.976;2023-04-01T03:17:17;5.43;;;3.65;;
48199;SDS011;33990;44.602;10.976;2023-04-01T03:19:45;5.15;;;3.20;;
48199;SDS011;33990;44.602;10.976;2023-04-01T03:22:13;5.20;;;3.17;;
48199;SDS011;33990;44.602;10.976;2023-04-01T03:24:40;4.22;;;3.33;;
48199;SDS011;33990;44.602;10.976;2023-04-01T03:27:07;5.68;;;3.25;;
48199;SDS011;33990;44.602;10.976;2023-04-01T03:29:35;5.03;;;3.20;;
48199;SDS011;33990;44.602;10.976;2023-04-01T03:32:02;4.95;;;3.30;;
48199;SDS011;33990;44.602;10.976;2023-04-01T03:34:29;4.68;;;3.10;;
48199;SDS011;33990;44.602;10.976;2023-04-01T03:36:57;8.18;;;3.40;;
48199;SDS011;33990;44.602;10.976;2023-04-01T03:39:24;4.20;;;3.30;;
48199;SDS011;33990;44.602;10.976;2023-04-01T03:41:52;4.97;;;3.00;;
48199;SDS011;33990;44.602;10.976;2023-04-01T03:44:19;5.22;;;3.30;;
48199;SDS011;33990;44.602;10.976;2023-04-01T03:46:50;4.22;;;3.15;;
48199;SDS011;33990;44.602;10.976;2023-04-01T03:49:18;7.90;;;4.05;;
48199;SDS011;33990;44.602;10.976;2023-04-01T03:51:45;11.93;;;3.75;;
48199;SDS011;33990;44.602;10.976;2023-04-01T03:54:13;4.13;;;3.20;;
48199;SDS011;33990;44.602;10.976;2023-04-01T03:56:40;4.65;;;3.17;;
48199;SDS011;33990;44.602;10.976;2023-04-01T03:59:08;7.43;;;3.58;;
48199;SDS011;33990;44.602;10.976;2023-04-01T04:01:35;4.80;;;3.60;;
48199;SDS011;33990;44.602;10.976;2023-04-01T04:04:03;6.97;;;3.08;;
48199;SDS011;33990;44.602;10.976;2023-04-01T04:06:32;5.40;;;2.75;;
48199;SDS011;33990;44.602;10.976;2023-04-01T04:08:59;6.55;;;3.17;;
48199;SDS011;33990;44.602;10.976;2023-04-01T04:11:30;5.63;;;3.67;;
48199;SDS011;33990;44.602;10.976;2023-04-01T04:13:58;6.05;;;2.58;;
48199;SDS011;33990;44.602;10.976;2023-04-01T04:16:26;6.03;;;3.20;;
48199;SDS011;33990;44.602;10.976;2023-04-01T04:18:58;5.32;;;3.80;;
48199;SDS011;33990;44.602;10.976;2023-04-01T04:21:25;5.28;;;3.25;;
48199;SDS011;33990;44.602;10.976;2023-04-01T04:23:53;4.38;;;3.28;;
48199;SDS011;33990;44.602;10.976;2023-04-01T04:26:20;4.78;;;3.42;;
48199;SDS011;33990;44.602;10.976;2023-04-01T04:28:59;6.22;;;3.10;;
48199;SDS011;33990;44.602;10.976;2023-04-01T04:31:28;4.47;;;3.25;;
48199;SDS011;33990;44.602;10.976;2023-04-01T04:33:59;5.05;;;3.03;;
48199;SDS011;33990;44.602;10.976;2023-04-01T04:36:30;4.90;;;3.30;;
48199;SDS011;33990;44.602;10.976;2023-04-01T04:38:57;5.68;;;3.58;;
48199;SDS011;33990;44.602;10.976;2023-04-01T04:41:29;5.25;;;3.72;;
48199;SDS011;33990;44.602;10.976;2023-04-01T04:43:56;5.03;;;3.28;;
48199;SDS011;33990;44.602;10.976;2023-04-01T04:46:25;4.85;;;2.92;;
48199;SDS011;33990;44.602;10.976;2023-04-01T04:49:00;5.78;;;3.47;;
48199;SDS011;33990;44.602;10.976;2023-04-01T04:51:28;4.60;;;3.63;;
48199;SDS011;33990;44.602;10.976;2023-04-01T04:53:55;5.35;;;3.28;;
48199;SDS011;33990;44.602;10.976;2023-04-01T04:56:33;7.82;;;3.38;;
48199;SDS011;33990;44.602;10.976;2023-04-01T04:59:05;5.38;;;3.20;;
48199;SDS011;33990;44.602;10.976;2023-04-01T05:01:46;4.50;;;3.38;;
48199;SDS011;33990;44.602;10.976;2023-04-01T05:04:14;4.72;;;3.03;;
48199;SDS011;33990;44.602;10.976;2023-04-01T05:06:44;5.25;;;3.35;;
48199;SDS011;33990;44.602;10.976;2023-04-01T05:09:12;6.85;;;3.60;;
48199;SDS011;33990;44.602;10.976;2023-04-01T05:11:40;4.68;;;3.20;;
48199;SDS011;33990;44.602;10.976;2023-04-01T05:14:15;4.88;;;3.17;;
48199;SDS011;33990;44.602;10.976;2023-04-01T05:16:52;5.03;;;3.35;;
48199;SDS011;33990;44.602;10.976;2023-04-01T05:19:21;4.30;;;3.28;;
48199;SDS011;33990;44.602;10.976;2023-04-01T05:21:48;4.70;;;3.33;;
48199;SDS011;33990;44.602;10.976;2023-04-01T05:24:16;7.18;;;3.28;;
48199;SDS011;33990;44.602;10.976;2023-04-01T05:26:45;6.68;;;3.20;;
48199;SDS011;33990;44.602;10.976;2023-04-01T05:29:13;4.85;;;3.03;;
48199;SDS011;33990;44.602;10.976;2023-04-01T05:31:41;4.97;;;3.38;;
48199;SDS011;33990;44.602;10.976;2023-04-01T05:34:08;5.63;;;3.10;;
48199;SDS011;33990;44.602;10.976;2023-04-01T05:36:36;4.68;;;3.53;;
48199;SDS011;33990;44.602;10.976;2023-04-01T05:39:03;5.50;;;2.90;;
48199;SDS011;33990;44.602;10.976;2023-04-01T05:41:34;3.70;;;2.85;;
48199;SDS011;33990;44.602;10.976;2023-04-01T05:44:05;6.50;;;3.03;;
48199;SDS011;33990;44.602;10.976;2023-04-01T05:46:41;5.40;;;2.83;;
48199;SDS011;33990;44.602;10.976;2023-04-01T05:49:23;3.83;;;2.55;;
48199;SDS011;33990;44.602;10.976;2023-04-01T05:51:53;3.63;;;2.75;;
48199;SDS011;33990;44.602;10.976;2023-04-01T05:54:21;4.00;;;2.75;;
48199;SDS011;33990;44.602;10.976;2023-04-01T05:56:49;5.38;;;3.53;;
48199;SDS011;33990;44.602;10.976;2023-04-01T05:59:19;4.97;;;3.72;;
48199;SDS011;33990;44.602;10.976;2023-04-01T06:01:46;3.70;;;2.75;;
48199;SDS011;33990;44.602;10.976;2023-04-01T06:04:15;5.78;;;3.22;;
48199;SDS011;33990;44.602;10.976;2023-04-01T06:06:45;6.28;;;3.38;;
48199;SDS011;33990;44.602;10.976;2023-04-01T06:09:14;3.58;;;2.97;;
48199;SDS011;33990;44.602;10.976;2023-04-01T06:37:09;5.40;;;3.58;;
48199;SDS011;33990;44.602;10.976;2023-04-01T06:40:21;4.35;;;3.17;;
48199;SDS011;33990;44.602;10.976;2023-04-01T06:43:00;5.00;;;2.92;;
48199;SDS011;33990;44.602;10.976;2023-04-01T06:46:11;4.95;;;2.83;;
48199;SDS011;33990;44.602;10.976;2023-04-01T06:49:15;4.15;;;2.72;;
48199;SDS011;33990;44.602;10.976;2023-04-01T06:55:32;6.32;;;2.90;;
48199;SDS011;33990;44.602;10.976;2023-04-01T06:58:33;4.97;;;3.00;;
48199;SDS011;33990;44.602;10.976;2023-04-01T07:01:06;4.00;;;2.83;;
48199;SDS011;33990;44.602;10.976;2023-04-01T07:03:48;4.95;;;3.17;;
48199;SDS011;33990;44.602;10.976;2023-04-01T07:06:25;4.90;;;3.28;;
48199;SDS011;33990;44.602;10.976;2023-04-01T07:08:59;5.03;;;3.30;;
48199;SDS011;33990;44.602;10.976;2023-04-01T07:11:53;4.57;;;2.72;;
48199;SDS011;33990;44.602;10.976;2023-04-01T07:14:50;4.55;;;2.80;;
48199;SDS011;33990;44.602;10.976;2023-04-01T07:17:23;5.55;;;3.63;;
48199;SDS011;33990;44.602;10.976;2023-04-01T07:20:03;4.72;;;3.17;;
48199;SDS011;33990;44.602;10.976;2023-04-01T07:22:42;4.80;;;3.10;;
48199;SDS011;33990;44.602;10.976;2023-04-01T07:25:34;6.30;;;3.72;;
48199;SDS011;33990;44.602;10.976;2023-04-01T07:28:26;4.78;;;3.25;;
48199;SDS011;33990;44.602;10.976;2023-04-01T07:36:39;5.43;;;3.63;;
48199;SDS011;33990;44.602;10.976;2023-04-01T07:47:55;5.28;;;3.15;;
48199;SDS011;33990;44.602;10.976;2023-04-01T07:50:28;5.32;;;3.40;;
48199;SDS011;33990;44.602;10.976;2023-04-01T07:56:05;5.25;;;3.40;;
48199;SDS011;33990;44.602;10.976;2023-04-01T07:58:57;5.80;;;3.22;;
48199;SDS011;33990;44.602;10.976;2023-04-01T08:05:09;5.80;;;3.45;;
48199;SDS011;33990;44.602;10.976;2023-04-01T08:14:18;5.35;;;3.17;;
48199;SDS011;33990;44.602;10.976;2023-04-01T08:17:20;7.18;;;3.72;;
48199;SDS011;33990;44.602;10.976;2023-04-01T08:23:00;5.30;;;3.10;;
48199;SDS011;33990;44.602;10.976;2023-04-01T08:25:51;4.50;;;3.35;;
48199;SDS011;33990;44.602;10.976;2023-04-01T08:31:25;7.05;;;3.65;;
48199;SDS011;33990;44.602;10.976;2023-04-01T08:34:01;4.18;;;3.05;;
48199;SDS011;33990;44.602;10.976;2023-04-01T08:36:34;6.93;;;3.73;;
48199;SDS011;33990;44.602;10.976;2023-04-01T08:39:22;5.18;;;3.28;;
48199;SDS011;33990;44.602;10.976;2023-04-01T08:44:38;5.93;;;3.40;;
48199;SDS011;33990;44.602;10.976;2023-04-01T08:47:32;5.22;;;2.92;;
48199;SDS011;33990;44.602;10.976;2023-04-01T08:53:25;5.68;;;3.40;;
48199;SDS011;33990;44.602;10.976;2023-04-01T08:56:17;4.60;;;3.00;;
48199;SDS011;33990;44.602;10.976;2023-04-01T09:25:13;5.80;;;2.78;;
48199;SDS011;33990;44.602;10.976;2023-04-01T09:27:57;5.53;;;3.15;;
48199;SDS011;33990;44.602;10.976;2023-04-01T09:36:25;4.60;;;3.22;;
48199;SDS011;33990;44.602;10.976;2023-04-01T09:39:31;3.58;;;2.65;;
48199;SDS011;33990;44.602;10.976;2023-04-01T09:44:57;4.70;;;2.80;;
48199;SDS011;33990;44.602;10.976;2023-04-01T09:47:49;4.55;;;2.80;;
48199;SDS011;33990;44.602;10.976;2023-04-01T09:58:26;4.55;;;2.70;;
48199;SDS011;33990;44.602;10.976;2023-04-01T10:26:32;5.20;;;2.63;;
48199;SDS011;33990;44.602;10.976;2023-04-01T10:35:33;9.48;;;2.25;;
48199;SDS011;33990;44.602;10.976;2023-04-01T10:58:44;6.45;;;2.22;;
48199;SDS011;33990;44.602;10.976;2023-04-01T11:22:51;3.97;;;2.40;;
48199;SDS011;33990;44.602;10.976;2023-04-01T11:49:06;6.13;;;2.00;;
48199;SDS011;33990;44.602;10.976;2023-04-01T12:00:02;3.70;;;2.10;;
48199;SDS011;33990;44.602;10.976;2023-04-01T12:05:46;6.90;;;1.90;;
48199;SDS011;33990;44.602;10.976;2023-04-01T12:08:27;4.65;;;1.75;;
48199;SDS011;33990;44.602;10.976;2023-04-01T12:13:59;5.10;;;2.50;;
48199;SDS011;33990;44.602;10.976;2023-04-01T12:21:55;4.95;;;1.80;;
48199;SDS011;33990;44.602;10.976;2023-04-01T12:24:46;3.55;;;2.13;;
48199;SDS011;33990;44.602;10.976;2023-04-01T12:36:19;8.48;;;3.17;;
48199;SDS011;33990;44.602;10.976;2023-04-01T12:56:02;15.27;;;6.05;;
48199;SDS011;33990;44.602;10.976;2023-04-01T12:59:17;11.80;;;5.35;;
48199;SDS011;33990;44.602;10.976;2023-04-01T13:21:29;7.35;;;2.83;;
48199;SDS011;33990;44.602;10.976;2023-04-01T13:27:20;6.30;;;2.70;;
48199;SDS011;33990;44.602;10.976;2023-04-01T13:37:54;5.78;;;1.90;;
48199;SDS011;33990;44.602;10.976;2023-04-01T13:44:19;5.68;;;1.50;;
48199;SDS011;33990;44.602;10.976;2023-04-01T13:47:39;4.53;;;1.67;;
48199;SDS011;33990;44.602;10.976;2023-04-01T14:03:43;3.58;;;1.23;;
48199;SDS011;33990;44.602;10.976;2023-04-01T14:16:54;4.13;;;1.00;;
48199;SDS011;33990;44.602;10.976;2023-04-01T14:19:49;2.35;;;0.98;;
48199;SDS011;33990;44.602;10.976;2023-04-01T14:28:06;2.20;;;0.82;;
48199;SDS011;33990;44.602;10.976;2023-04-01T14:31:10;2.72;;;0.90;;
48199;SDS011;33990;44.602;10.976;2023-04-01T14:47:28;3.45;;;0.60;;
48199;SDS011;33990;44.602;10.976;2023-04-01T14:50:09;2.83;;;0.65;;
48199;SDS011;33990;44.602;10.976;2023-04-01T14:53:31;4.20;;;0.75;;
48199;SDS011;33990;44.602;10.976;2023-04-01T14:58:17;2.95;;;0.52;;
48199;SDS011;33990;44.602;10.976;2023-04-01T15:05:49;3.28;;;1.00;;
48199;SDS011;33990;44.602;10.976;2023-04-01T15:08:21;1.30;;;0.60;;
48199;SDS011;33990;44.602;10.976;2023-04-01T15:19:14;2.13;;;0.40;;
48199;SDS011;33990;44.602;10.976;2023-04-01T15:21:55;2.10;;;0.75;;
48199;SDS011;33990;44.602;10.976;2023-04-01T15:25:00;1.42;;;0.40;;
48199;SDS011;33990;44.602;10.976;2023-04-01T15:27:50;1.17;;;0.47;;
48199;SDS011;33990;44.602;10.976;2023-04-01T15:38:49;2.22;;;0.63;;
48199;SDS011;33990;44.602;10.976;2023-04-01T15:46:58;4.53;;;0.60;;
48199;SDS011;33990;44.602;10.976;2023-04-01T15:49:36;1.70;;;0.50;;
48199;SDS011;33990;44.602;10.976;2023-04-01T16:00:23;4.47;;;0.70;;
48199;SDS011;33990;44.602;10.976;2023-04-01T16:05:48;2.17;;;0.80;;
48199;SDS011;33990;44.602;10.976;2023-04-01T16:17:49;2.33;;;0.63;;
48199;SDS011;33990;44.602;10.976;2023-04-01T16:21:05;2.75;;;0.60;;
48199;SDS011;33990;44.602;10.976;2023-04-01T16:23:40;1.75;;;0.65;;
48199;SDS011;33990;44.602;10.976;2023-04-01T16:29:09;2.63;;;0.77;;
48199;SDS011;33990;44.602;10.976;2023-04-01T16:31:46;6.45;;;0.70;;
48199;SDS011;33990;44.602;10.976;2023-04-01T16:34:44;2.03;;;0.40;;
48199;SDS011;33990;44.602;10.976;2023-04-01T16:40:36;5.45;;;0.88;;
48199;SDS011;33990;44.602;10.976;2023-04-01T16:45:39;2.17;;;0.60;;
48199;SDS011;33990;44.602;10.976;2023-04-01T16:48:12;5.07;;;0.82;;
48199;SDS011;33990;44.602;10.976;2023-04-01T16:53:17;3.03;;;0.70;;
48199;SDS011;33990;44.602;10.976;2023-04-01T16:55:55;2.97;;;0.82;;
48199;SDS011;33990;44.602;10.976;2023-04-01T17:01:14;6.28;;;1.08;;
48199;SDS011;33990;44.602;10.976;2023-04-01T17:03:49;5.55;;;0.88;;
48199;SDS011;33990;44.602;10.976;2023-04-01T17:09:19;1.63;;;0.50;;
48199;SDS011;33990;44.602;10.976;2023-04-01T17:14:33;1.15;;;0.50;;
48199;SDS011;33990;44.602;10.976;2023-04-01T17:17:54;4.95;;;0.60;;
48199;SDS011;33990;44.602;10.976;2023-04-01T17:20:24;1.38;;;0.60;;
48199;SDS011;33990;44.602;10.976;2023-04-01T17:25:51;2.47;;;0.57;;
48199;SDS011;33990;44.602;10.976;2023-04-01T17:28:28;5.13;;;0.68;;
48199;SDS011;33990;44.602;10.976;2023-04-01T17:31:01;1.77;;;0.50;;
48199;SDS011;33990;44.602;10.976;2023-04-01T17:33:40;1.73;;;0.65;;
48199;SDS011;33990;44.602;10.976;2023-04-01T17:36:23;1.17;;;0.85;;
48199;SDS011;33990;44.602;10.976;2023-04-01T17:39:34;2.78;;;1.00;;
48199;SDS011;33990;44.602;10.976;2023-04-01T17:42:16;2.13;;;0.80;;
48199;SDS011;33990;44.602;10.976;2023-04-01T17:45:18;2.78;;;0.50;;
48199;SDS011;33990;44.602;10.976;2023-04-01T18:04:15;3.40;;;1.27;;
48199;SDS011;33990;44.602;10.976;2023-04-01T18:09:49;3.58;;;1.45;;
48199;SDS011;33990;44.602;10.976;2023-04-01T18:15:16;6.63;;;1.75;;
48199;SDS011;33990;44.602;10.976;2023-04-01T18:23:17;6.43;;;1.45;;
48199;SDS011;33990;44.602;10.976;2023-04-01T18:25:55;4.70;;;1.80;;
48199;SDS011;33990;44.602;10.976;2023-04-01T18:28:41;6.35;;;1.55;;
48199;SDS011;33990;44.602;10.976;2023-04-01T18:31:15;4.82;;;1.30;;
48199;SDS011;33990;44.602;10.976;2023-04-01T18:36:44;8.75;;;2.20;;
48199;SDS011;33990;44.602;10.976;2023-04-01T18:39:17;11.97;;;2.80;;
48199;SDS011;33990;44.602;10.976;2023-04-01T18:45:10;8.23;;;2.03;;
48199;SDS011;33990;44.602;10.976;2023-04-01T18:56:08;11.65;;;1.90;;
48199;SDS011;33990;44.602;10.976;2023-04-01T19:05:00;5.65;;;1.70;;
48199;SDS011;33990;44.602;10.976;2023-04-01T19:07:43;10.73;;;2.67;;
48199;SDS011;33990;44.602;10.976;2023-04-01T19:10:31;7.63;;;1.75;;
48199;SDS011;33990;44.602;10.976;2023-04-01T19:15:47;4.07;;;1.35;;
48199;SDS011;33990;44.602;10.976;2023-04-01T19:21:14;5.18;;;1.42;;
48199;SDS011;33990;44.602;10.976;2023-04-01T19:23:49;6.45;;;1.75;;
48199;SDS011;33990;44.602;10.976;2023-04-01T19:29:48;4.95;;;1.73;;
48199;SDS011;33990;44.602;10.976;2023-04-01T19:35:16;4.53;;;1.25;;
48199;SDS011;33990;44.602;10.976;2023-04-01T19:40:37;4.93;;;1.73;;
48199;SDS011;33990;44.602;10.976;2023-04-01T20:04:42;4.45;;;1.40;;
48199;SDS011;33990;44.602;10.976;2023-04-01T20:07:31;6.18;;;1.50;;
48199;SDS011;33990;44.602;10.976;2023-04-01T20:10:09;4.93;;;1.52;;
48199;SDS011;33990;44.602;10.976;2023-04-01T20:15:35;6.05;;;1.70;;
48199;SDS011;33990;44.602;10.976;2023-04-01T20:21:00;5.10;;;1.40;;
48199;SDS011;33990;44.602;10.976;2023-04-01T20:23:45;3.50;;;1.70;;
48199;SDS011;33990;44.602;10.976;2023-04-01T20:26:24;5.65;;;1.40;;
48199;SDS011;33990;44.602;10.976;2023-04-01T20:31:37;4.80;;;1.45;;
48199;SDS011;33990;44.602;10.976;2023-04-01T20:37:00;3.63;;;1.33;;
48199;SDS011;33990;44.602;10.976;2023-04-01T20:42:39;3.97;;;1.40;;
48199;SDS011;33990;44.602;10.976;2023-04-01T20:45:18;3.63;;;1.20;;
48199;SDS011;33990;44.602;10.976;2023-04-01T20:48:02;5.57;;;1.52;;
48199;SDS011;33990;44.602;10.976;2023-04-01T20:50:53;4.22;;;1.20;;
48199;SDS011;33990;44.602;10.976;2023-04-01T20:54:17;3.80;;;1.35;;
48199;SDS011;33990;44.602;10.976;2023-04-01T21:04:22;4.90;;;1.42;;
48199;SDS011;33990;44.602;10.976;2023-04-01T21:17:51;6.10;;;1.42;;
48199;SDS011;33990;44.602;10.976;2023-04-01T21:20:52;3.90;;;1.45;;
48199;SDS011;33990;44.602;10.976;2023-04-01T21:51:12;5.20;;;1.80;;
48199;SDS011;33990;44.602;10.976;2023-04-01T22:05:09;3.90;;;1.42;;
48199;SDS011;33990;44.602;10.976;2023-04-01T22:18:54;4.60;;;1.40;;
48199;SDS011;33990;44.602;10.976;2023-04-01T22:27:03;3.92;;;1.13;;
48199;SDS011;33990;44.602;10.976;2023-04-01T22:32:29;2.45;;;1.10;;
48199;SDS011;33990;44.602;10.976;2023-04-01T22:43:40;3.20;;;1.63;;
48199;SDS011;33990;44.602;10.976;2023-04-01T22:48:51;4.82;;;1.40;;
48199;SDS011;33990;44.602;10.976;2023-04-01T22:54:02;5.90;;;1.52;;
48199;SDS011;33990;44.602;10.976;2023-04-01T22:56:38;2.78;;;1.23;;
48199;SDS011;33990;44.602;10.976;2023-04-01T22:59:16;5.25;;;1.80;;
48199;SDS011;33990;44.602;10.976;2023-04-01T23:01:56;5.18;;;1.45;;
48199;SDS011;33990;44.602;10.976;2023-04-01T23:04:31;5.30;;;1.85;;
48199;SDS011;33990;44.602;10.976;2023-04-01T23:07:05;5.25;;;1.60;;
48199;SDS011;33990;44.602;10.976;2023-04-01T23:09:51;5.50;;;1.65;;
48199;SDS011;33990;44.602;10.976;2023-04-01T23:12:22;4.63;;;1.50;;
48199;SDS011;33990;44.602;10.976;2023-04-01T23:14:52;5.00;;;1.65;;
48199;SDS011;33990;44.602;10.976;2023-04-01T23:23:11;4.38;;;1.40;;
48199;SDS011;33990;44.602;10.976;2023-04-01T23:38:27;4.75;;;1.23;;
48199;SDS011;33990;44.602;10.976;2023-04-01T23:40:54;3.30;;;1.05;;
48199;SDS011;33990;44.602;10.976;2023-04-01T23:43:26;4.60;;;1.20;;
48199;SDS011;33990;44.602;10.976;2023-04-01T23:46:01;4.45;;;1.80;;
48199;SDS011;33990;44.602;10.976;2023-04-01T23:48:35;4.55;;;1.33;;
48199;SDS011;33990;44.602;10.976;2023-04-01T23:54:18;2.60;;;1.30;;
48199;SDS011;33990;44.602;10.976;2023-04-01T23:56:58;3.20;;;1.40;;
48199;SDS011;33990;44.602;10.976;2023-04-01T23:59:30;4.68;;;1.73;;
